createdAt,value
2023-03-19T00:00:26.708Z,0.83
2023-03-19T00:02:53.847Z,2.43
2023-03-19T00:05:21.121Z,2.37
2023-03-19T00:07:47.936Z,1.33
2023-03-19T00:10:14.800Z,2.93
2023-03-19T00:12:41.650Z,2.50
2023-03-19T00:15:14.105Z,1.67
2023-03-19T00:17:44.513Z,4.37
2023-03-19T00:20:14.856Z,1.67
2023-03-19T00:22:42.071Z,2.33
2023-03-19T00:25:10.153Z,1.83
2023-03-19T00:27:38.248Z,2.40
2023-03-19T00:30:07.093Z,2.50
2023-03-19T00:32:34.386Z,7.10
2023-03-19T00:35:01.484Z,1.43
2023-03-19T00:37:28.567Z,3.13
2023-03-19T00:39:56.263Z,1.47
2023-03-19T00:42:23.285Z,2.70
2023-03-19T00:44:50.379Z,1.40
2023-03-19T00:47:17.306Z,1.40
2023-03-19T00:49:44.793Z,4.57
2023-03-19T00:52:11.612Z,2.93
2023-03-19T00:54:38.568Z,1.37
2023-03-19T00:57:05.721Z,2.63
2023-03-19T00:59:32.599Z,1.20
2023-03-19T01:01:59.512Z,1.30
2023-03-19T01:04:26.394Z,1.00
2023-03-19T01:06:53.320Z,1.70
2023-03-19T01:09:20.290Z,0.90
2023-03-19T01:11:47.237Z,2.03
2023-03-19T01:14:16.264Z,3.53
2023-03-19T01:16:43.450Z,2.23
2023-03-19T01:19:10.385Z,2.30
2023-03-19T01:21:37.282Z,2.53
2023-03-19T01:24:04.161Z,1.70
2023-03-19T01:26:31.387Z,5.43
2023-03-19T01:28:58.614Z,2.33
2023-03-19T01:31:25.640Z,6.43
2023-03-19T01:33:52.822Z,3.97
2023-03-19T01:36:19.762Z,2.50
2023-03-19T01:38:46.696Z,0.87
2023-03-19T01:41:13.728Z,1.40
2023-03-19T01:43:40.676Z,1.43
2023-03-19T01:46:28.486Z,6.40
2023-03-19T01:49:03.836Z,1.53
2023-03-19T01:51:34.976Z,1.90
2023-03-19T01:54:07.016Z,2.90
2023-03-19T01:56:37.603Z,2.17
2023-03-19T01:59:13.216Z,1.63
2023-03-19T02:01:51.226Z,0.90
2023-03-19T02:04:19.712Z,3.60
2023-03-19T02:06:47.317Z,1.43
2023-03-19T02:09:15.962Z,7.87
2023-03-19T02:11:43.587Z,0.90
2023-03-19T02:14:10.623Z,2.33
2023-03-19T02:16:37.581Z,1.43
2023-03-19T02:19:09.206Z,1.67
2023-03-19T02:21:36.207Z,1.17
2023-03-19T02:24:07.989Z,1.90
2023-03-19T02:26:36.490Z,1.43
2023-03-19T02:29:04.301Z,2.50
2023-03-19T02:31:31.463Z,1.43
2023-03-19T02:34:03.775Z,3.27
2023-03-19T02:36:38.912Z,0.80
2023-03-19T02:39:20.584Z,1.30
2023-03-19T02:41:48.592Z,1.40
2023-03-19T02:44:19.990Z,1.83
2023-03-19T02:46:46.929Z,2.33
2023-03-19T02:49:13.933Z,0.60
2023-03-19T02:51:42.103Z,1.37
2023-03-19T02:54:09.084Z,1.23
2023-03-19T02:56:35.995Z,1.90
2023-03-19T02:59:03.196Z,1.47
2023-03-19T03:01:30.130Z,0.90
2023-03-19T03:03:57.099Z,1.53
2023-03-19T03:06:23.940Z,1.50
2023-03-19T03:08:50.806Z,2.33
2023-03-19T03:11:17.578Z,0.90
2023-03-19T03:13:44.716Z,1.13
2023-03-19T03:16:12.741Z,0.80
2023-03-19T03:18:39.668Z,1.30
2023-03-19T03:21:06.495Z,3.60
2023-03-19T03:23:33.340Z,2.03
2023-03-19T03:26:00.601Z,1.53
2023-03-19T03:28:27.470Z,1.80
2023-03-19T03:31:01.070Z,2.40
2023-03-19T03:33:28.587Z,2.17
2023-03-19T03:35:55.993Z,0.97
2023-03-19T03:38:23.577Z,0.83
2023-03-19T03:40:52.627Z,1.67
2023-03-19T03:43:21.260Z,1.77
2023-03-19T03:45:49.095Z,1.90
2023-03-19T03:48:16.895Z,3.93
2023-03-19T03:50:44.047Z,2.50
2023-03-19T03:53:12.589Z,1.03
2023-03-19T03:55:39.845Z,1.90
2023-03-19T03:58:06.849Z,1.93
2023-03-19T04:00:34.411Z,2.00
2023-03-19T04:03:01.672Z,3.70
2023-03-19T04:05:28.552Z,2.37
2023-03-19T04:07:56.322Z,2.17
2023-03-19T04:10:23.586Z,1.70
2023-03-19T04:12:50.921Z,1.77
2023-03-19T04:15:17.828Z,2.90
2023-03-19T04:17:45.534Z,4.23
2023-03-19T04:20:12.625Z,1.23
2023-03-19T04:22:39.451Z,3.77
2023-03-19T04:25:08.468Z,1.77
2023-03-19T04:27:35.305Z,1.07
2023-03-19T04:30:02.476Z,1.77
2023-03-19T04:32:29.460Z,1.33
2023-03-19T04:34:58.458Z,3.67
2023-03-19T04:37:25.301Z,1.47
2023-03-19T04:39:52.143Z,1.70
2023-03-19T04:42:19.231Z,1.90
2023-03-19T04:44:46.136Z,1.00
2023-03-19T04:47:12.974Z,3.23
2023-03-19T04:49:39.883Z,0.97
2023-03-19T04:52:06.972Z,0.93
2023-03-19T04:54:34.091Z,6.10
2023-03-19T04:57:01.031Z,1.20
2023-03-19T04:59:28.040Z,1.33
2023-03-19T05:01:54.945Z,3.50
2023-03-19T05:04:21.871Z,2.30
2023-03-19T05:06:48.835Z,2.63
2023-03-19T05:09:15.809Z,3.20
2023-03-19T05:11:42.626Z,0.73
2023-03-19T05:14:09.637Z,1.50
2023-03-19T05:16:36.577Z,0.77
2023-03-19T05:19:03.472Z,1.67
2023-03-19T05:21:30.337Z,1.50
2023-03-19T05:23:57.343Z,2.40
2023-03-19T05:26:24.192Z,1.90
2023-03-19T05:28:51.039Z,1.47
2023-03-19T05:31:17.923Z,2.10
2023-03-19T05:33:44.709Z,1.83
2023-03-19T05:36:12.429Z,1.00
2023-03-19T05:38:39.457Z,1.13
2023-03-19T05:41:07.022Z,2.40
2023-03-19T05:43:34.123Z,2.07
2023-03-19T05:46:01.688Z,4.47
2023-03-19T05:48:28.603Z,3.00
2023-03-19T05:50:55.565Z,5.27
2023-03-19T05:53:23.170Z,2.47
2023-03-19T05:55:50.081Z,7.00
2023-03-19T05:58:17.024Z,1.30
2023-03-19T06:00:44.071Z,3.80
2023-03-19T06:03:11.178Z,5.33
2023-03-19T06:05:38.153Z,6.40
2023-03-19T06:08:05.633Z,3.20
2023-03-19T06:10:34.329Z,1.73
2023-03-19T06:13:01.317Z,2.13
2023-03-19T06:15:28.216Z,1.00
2023-03-19T06:17:54.984Z,2.13
2023-03-19T06:20:22.008Z,2.33
2023-03-19T06:22:48.863Z,1.60
2023-03-19T06:25:16.105Z,2.47
2023-03-19T06:27:43.160Z,2.30
2023-03-19T06:30:10.954Z,1.53
2023-03-19T06:32:38.436Z,7.13
2023-03-19T06:35:09.119Z,2.63
2023-03-19T06:37:36.609Z,1.80
2023-03-19T06:40:05.078Z,1.23
2023-03-19T06:42:32.327Z,2.27
2023-03-19T06:44:59.172Z,1.33
2023-03-19T06:47:27.120Z,3.20
2023-03-19T06:49:54.150Z,2.97
2023-03-19T06:52:21.238Z,2.43
2023-03-19T06:54:48.326Z,0.93
2023-03-19T06:57:15.565Z,1.63
2023-03-19T06:59:42.484Z,3.07
2023-03-19T07:02:12.160Z,3.47
2023-03-19T07:04:39.006Z,1.00
2023-03-19T07:07:06.097Z,0.67
2023-03-19T07:09:33.188Z,0.70
2023-03-19T07:12:00.178Z,2.20
2023-03-19T07:14:27.074Z,1.67
2023-03-19T07:16:54.048Z,0.70
2023-03-19T07:19:21.018Z,0.80
2023-03-19T07:21:48.074Z,2.93
2023-03-19T07:24:15.203Z,1.37
2023-03-19T07:26:43.989Z,1.13
2023-03-19T07:29:11.232Z,0.70
2023-03-19T07:31:38.143Z,1.07
2023-03-19T07:34:05.216Z,0.97
2023-03-19T07:36:32.178Z,1.27
2023-03-19T07:38:59.061Z,1.30
2023-03-19T07:41:26.505Z,2.33
2023-03-19T07:43:53.478Z,1.27
2023-03-19T07:46:20.486Z,1.43
2023-03-19T07:48:47.332Z,2.10
2023-03-19T07:51:14.430Z,0.70
2023-03-19T07:53:41.574Z,0.60
2023-03-19T07:56:08.426Z,1.03
2023-03-19T07:58:35.604Z,4.10
2023-03-19T08:01:02.451Z,1.23
2023-03-19T08:03:29.492Z,0.93
2023-03-19T08:05:56.378Z,1.33
2023-03-19T08:08:23.196Z,0.57
2023-03-19T08:10:51.006Z,0.77
2023-03-19T08:13:17.981Z,1.03
2023-03-19T08:15:44.768Z,2.33
2023-03-19T08:18:11.670Z,1.97
2023-03-19T08:20:38.520Z,1.20
2023-03-19T08:23:06.155Z,0.73
2023-03-19T08:25:33.191Z,1.03
2023-03-19T08:28:01.248Z,0.57
2023-03-19T08:30:28.641Z,1.90
2023-03-19T08:32:55.823Z,0.90
2023-03-19T08:35:23.002Z,2.40
2023-03-19T08:37:49.864Z,4.23
2023-03-19T08:40:16.814Z,0.73
2023-03-19T08:42:45.203Z,2.20
2023-03-19T08:45:14.308Z,1.20
2023-03-19T08:47:42.140Z,0.90
2023-03-19T08:50:10.116Z,0.47
2023-03-19T08:52:36.923Z,1.07
2023-03-19T08:55:04.745Z,0.57
2023-03-19T08:57:32.453Z,0.60
2023-03-19T08:59:59.323Z,0.67
2023-03-19T09:02:26.708Z,1.10
2023-03-19T09:04:53.958Z,1.33
2023-03-19T09:07:20.895Z,0.40
2023-03-19T09:09:47.705Z,4.47
2023-03-19T09:12:17.067Z,1.57
2023-03-19T09:14:44.466Z,1.03
2023-03-19T09:17:13.395Z,1.23
2023-03-19T09:19:40.895Z,0.77
2023-03-19T09:22:07.706Z,1.40
2023-03-19T09:24:34.631Z,0.87
2023-03-19T09:27:01.627Z,1.40
2023-03-19T09:29:28.618Z,3.03
2023-03-19T09:31:55.818Z,1.33
2023-03-19T09:34:22.709Z,1.57
2023-03-19T09:36:49.571Z,2.40
2023-03-19T09:39:16.357Z,0.93
2023-03-19T09:42:03.926Z,1.50
2023-03-19T09:44:35.031Z,1.00
2023-03-19T09:47:20.856Z,3.17
2023-03-19T09:49:49.223Z,0.63
2023-03-19T09:52:31.773Z,1.97
2023-03-19T09:55:03.980Z,2.63
2023-03-19T09:57:33.221Z,0.77
2023-03-19T10:00:00.149Z,1.10
2023-03-19T10:02:43.977Z,0.73
2023-03-19T10:05:48.679Z,1.37
2023-03-19T10:08:56.860Z,0.67
2023-03-19T10:11:46.580Z,0.70
2023-03-19T10:14:35.680Z,0.70
2023-03-19T10:17:05.386Z,1.30
2023-03-19T10:19:45.798Z,0.70
2023-03-19T10:22:18.619Z,0.93
2023-03-19T10:24:47.200Z,2.40
2023-03-19T10:27:21.147Z,1.50
2023-03-19T10:29:48.101Z,0.60
2023-03-19T10:32:41.498Z,1.93
2023-03-19T10:35:18.686Z,0.73
2023-03-19T10:37:45.653Z,0.90
2023-03-19T10:40:26.535Z,0.67
2023-03-19T10:43:14.675Z,2.73
2023-03-19T10:45:42.042Z,2.77
2023-03-19T10:48:16.061Z,0.70
2023-03-19T10:50:52.975Z,1.87
2023-03-19T10:53:40.346Z,0.63
2023-03-19T10:56:25.313Z,2.13
2023-03-19T10:59:02.297Z,2.43
2023-03-19T11:01:39.877Z,0.70
2023-03-19T11:04:18.888Z,1.17
2023-03-19T11:06:54.954Z,1.30
2023-03-19T11:09:35.205Z,2.50
2023-03-19T11:12:19.079Z,1.70
2023-03-19T11:14:49.051Z,1.47
2023-03-19T11:17:45.547Z,2.57
2023-03-19T11:20:23.759Z,0.97
2023-03-19T11:22:52.837Z,1.20
2023-03-19T11:25:25.726Z,2.80
2023-03-19T11:28:07.640Z,1.77
2023-03-19T11:30:39.042Z,1.57
2023-03-19T11:33:29.977Z,0.73
2023-03-19T11:36:11.339Z,3.27
2023-03-19T11:38:48.556Z,3.53
2023-03-19T11:41:34.259Z,0.90
2023-03-19T11:44:16.148Z,1.33
2023-03-19T11:47:05.626Z,0.83
2023-03-19T11:49:33.825Z,1.10
2023-03-19T11:52:12.123Z,1.10
2023-03-19T11:55:13.340Z,2.23
2023-03-19T11:58:14.602Z,1.43
2023-03-19T12:01:05.817Z,0.50
2023-03-19T12:03:58.199Z,2.83
2023-03-19T12:07:01.102Z,3.10
2023-03-19T12:09:52.613Z,0.90
2023-03-19T12:12:40.576Z,2.37
2023-03-19T12:15:48.411Z,3.53
2023-03-19T12:18:41.038Z,0.67
2023-03-19T12:21:23.901Z,0.87
2023-03-19T12:24:23.651Z,0.50
2023-03-19T12:27:06.757Z,1.60
2023-03-19T12:29:33.633Z,0.73
2023-03-19T12:32:22.265Z,1.23
2023-03-19T12:35:02.517Z,0.50
2023-03-19T12:37:35.746Z,1.53
2023-03-19T12:40:15.078Z,0.67
2023-03-19T12:42:42.596Z,1.70
2023-03-19T12:45:25.588Z,1.07
2023-03-19T12:48:07.162Z,0.77
2023-03-19T12:50:38.410Z,1.27
2023-03-19T12:53:25.763Z,1.40
2023-03-19T12:55:59.998Z,1.30
2023-03-19T12:58:40.528Z,17.07
2023-03-19T13:01:16.751Z,2.23
2023-03-19T13:03:59.097Z,1.57
2023-03-19T13:06:41.406Z,2.87
2023-03-19T13:09:31.538Z,1.15
2023-03-19T13:12:24.145Z,0.52
2023-03-19T13:15:12.664Z,2.15
2023-03-19T13:17:57.292Z,1.17
2023-03-19T13:20:29.817Z,1.42
2023-03-19T13:23:02.374Z,0.93
2023-03-19T13:25:42.492Z,0.82
2023-03-19T13:28:20.949Z,1.23
2023-03-19T13:31:04.317Z,4.10
2023-03-19T13:33:32.764Z,1.17
2023-03-19T13:36:05.361Z,0.70
2023-03-19T13:38:41.667Z,0.50
2023-03-19T13:41:39.709Z,2.53
2023-03-19T13:44:28.319Z,1.88
2023-03-19T13:46:55.221Z,1.23
2023-03-19T13:49:35.514Z,7.03
2023-03-19T13:52:11.915Z,2.70
2023-03-19T13:54:46.018Z,2.78
2023-03-19T13:57:17.092Z,1.35
2023-03-19T13:59:47.455Z,1.00
2023-03-19T14:02:23.980Z,1.48
2023-03-19T14:04:52.670Z,4.32
2023-03-19T14:07:24.365Z,0.95
2023-03-19T14:10:07.053Z,0.90
2023-03-19T14:12:37.102Z,1.87
2023-03-19T14:15:07.380Z,1.27
2023-03-19T14:17:35.612Z,0.93
2023-03-19T14:20:35.524Z,1.07
2023-03-19T14:23:09.697Z,3.80
2023-03-19T14:26:10.260Z,2.27
2023-03-19T14:28:46.690Z,1.73
2023-03-19T14:31:31.993Z,1.13
2023-03-19T14:34:04.524Z,1.77
2023-03-19T14:36:32.118Z,3.27
2023-03-19T14:39:07.524Z,2.97
2023-03-19T14:41:41.105Z,0.63
2023-03-19T14:44:39.021Z,1.07
2023-03-19T14:47:24.482Z,1.07
2023-03-19T14:50:26.063Z,3.97
2023-03-19T14:53:02.705Z,1.00
2023-03-19T14:55:37.966Z,0.40
2023-03-19T14:58:05.733Z,1.60
2023-03-19T15:00:46.006Z,1.03
2023-03-19T15:03:37.730Z,1.57
2023-03-19T15:06:07.475Z,4.03
2023-03-19T15:08:38.310Z,1.30
2023-03-19T15:11:14.455Z,1.17
2023-03-19T15:13:59.735Z,1.43
2023-03-19T15:17:11.247Z,2.67
2023-03-19T15:19:39.984Z,4.07
2023-03-19T15:22:20.028Z,10.43
2023-03-19T15:24:47.973Z,1.50
2023-03-19T15:27:23.618Z,0.80
2023-03-19T15:29:52.020Z,1.07
2023-03-19T15:33:04.425Z,1.33
2023-03-19T15:35:29.030Z,2.17
2023-03-19T15:38:02.089Z,1.53
2023-03-19T15:40:31.571Z,0.80
2023-03-19T15:43:02.874Z,2.30
2023-03-19T15:45:36.602Z,1.53
2023-03-19T15:48:17.943Z,2.00
2023-03-19T15:50:48.157Z,0.60
2023-03-19T15:53:25.802Z,1.10
2023-03-19T15:55:54.180Z,7.43
2023-03-19T15:58:27.564Z,1.67
2023-03-19T16:00:55.636Z,1.40
2023-03-19T16:03:30.005Z,14.50
2023-03-19T16:06:06.590Z,1.20
2023-03-19T16:08:33.759Z,3.27
2023-03-19T16:11:33.496Z,2.83
2023-03-19T16:14:02.641Z,1.07
2023-03-19T16:16:32.721Z,1.30
2023-03-19T16:18:59.854Z,8.40
2023-03-19T16:21:36.433Z,1.90
2023-03-19T16:24:14.841Z,1.30
2023-03-19T16:26:46.885Z,1.53
2023-03-19T16:29:30.350Z,2.43
2023-03-19T16:32:08.478Z,1.37
2023-03-19T16:34:46.424Z,3.73
2023-03-19T16:37:43.405Z,2.73
2023-03-19T16:40:13.361Z,1.97
2023-03-19T16:42:41.228Z,3.40
2023-03-19T16:45:17.317Z,2.43
2023-03-19T16:47:51.939Z,1.33
2023-03-19T16:50:21.394Z,8.43
2023-03-19T16:52:49.589Z,2.67
2023-03-19T16:55:25.573Z,1.03
2023-03-19T16:58:25.573Z,1.07
2023-03-19T17:00:55.733Z,2.20
2023-03-19T17:03:30.465Z,1.77
2023-03-19T17:05:58.006Z,2.07
2023-03-19T17:08:26.263Z,1.33
2023-03-19T17:10:56.361Z,1.93
2023-03-19T17:13:30.145Z,0.80
2023-03-19T17:15:59.470Z,1.40
2023-03-19T17:18:29.941Z,2.23
2023-03-19T17:21:08.948Z,1.43
2023-03-19T17:23:36.047Z,1.67
2023-03-19T17:26:05.875Z,3.53
2023-03-19T17:28:32.960Z,3.13
2023-03-19T17:30:59.914Z,1.30
2023-03-19T17:33:29.641Z,2.90
2023-03-19T17:35:58.930Z,1.73
2023-03-19T17:38:32.572Z,2.93
2023-03-19T17:40:59.480Z,2.87
2023-03-19T17:43:26.351Z,2.30
2023-03-19T17:45:54.670Z,3.70
2023-03-19T17:48:24.462Z,2.27
2023-03-19T17:50:51.871Z,6.67
2023-03-19T17:53:18.767Z,2.63
2023-03-19T17:55:46.987Z,3.13
2023-03-19T17:58:19.762Z,4.67
2023-03-19T18:00:48.152Z,1.73
2023-03-19T18:03:17.510Z,3.07
2023-03-19T18:05:44.781Z,6.10
2023-03-19T18:08:17.037Z,3.43
2023-03-19T18:10:44.401Z,2.67
2023-03-19T18:13:11.374Z,6.70
2023-03-19T18:15:40.391Z,2.87
2023-03-19T18:18:13.270Z,3.47
2023-03-19T18:20:40.578Z,3.07
2023-03-19T18:23:07.547Z,9.53
2023-03-19T18:25:35.801Z,4.70
2023-03-19T18:28:03.873Z,5.43
2023-03-19T18:30:34.941Z,8.30
2023-03-19T18:33:05.376Z,28.17
2023-03-19T18:35:36.693Z,24.63
2023-03-19T18:38:04.005Z,23.07
2023-03-19T18:40:32.977Z,31.17
2023-03-19T18:43:01.297Z,40.13
2023-03-19T18:45:32.731Z,24.83
2023-03-19T18:48:00.558Z,21.07
2023-03-19T18:50:29.960Z,55.53
2023-03-19T18:52:57.277Z,14.83
2023-03-19T18:55:29.394Z,11.80
2023-03-19T18:57:59.863Z,6.90
2023-03-19T19:00:30.334Z,6.80
2023-03-19T19:02:58.228Z,4.17
2023-03-19T19:05:28.026Z,4.87
2023-03-19T19:08:00.511Z,2.80
2023-03-19T19:10:33.994Z,3.80
2023-03-19T19:13:02.289Z,3.67
2023-03-19T19:15:33.632Z,4.17
2023-03-19T19:18:01.533Z,3.50
2023-03-19T19:20:29.915Z,1.17
2023-03-19T19:22:56.852Z,5.00
2023-03-19T19:25:28.829Z,3.63
2023-03-19T19:28:04.623Z,2.40
2023-03-19T19:30:32.304Z,3.73
2023-03-19T19:32:59.370Z,2.23
2023-03-19T19:35:28.617Z,2.10
2023-03-19T19:37:55.611Z,3.70
2023-03-19T19:40:29.345Z,2.73
2023-03-19T19:42:56.581Z,4.57
2023-03-19T19:45:23.430Z,2.03
2023-03-19T19:47:50.419Z,3.70
2023-03-19T19:50:18.601Z,4.97
2023-03-19T19:52:45.783Z,3.43
2023-03-19T19:55:12.620Z,3.27
2023-03-19T19:57:40.566Z,1.83
2023-03-19T20:00:27.141Z,4.43
2023-03-19T20:02:55.010Z,6.87
2023-03-19T20:05:30.295Z,1.73
2023-03-19T20:07:59.250Z,3.10
2023-03-19T20:10:28.537Z,5.27
2023-03-19T20:12:58.591Z,7.73
2023-03-19T20:15:33.051Z,4.33
2023-03-19T20:18:05.182Z,6.73
2023-03-19T20:20:33.400Z,4.77
2023-03-19T20:23:03.842Z,4.47
2023-03-19T20:25:35.289Z,4.67
2023-03-19T20:28:03.846Z,2.73
2023-03-19T20:30:33.482Z,8.50
2023-03-19T20:33:02.075Z,10.43
2023-03-19T20:35:31.298Z,5.47
2023-03-19T20:38:00.308Z,5.13
2023-03-19T20:40:51.719Z,4.40
2023-03-19T20:43:34.334Z,3.40
2023-03-19T20:46:04.539Z,6.93
2023-03-19T20:48:32.675Z,2.70
2023-03-19T20:51:01.479Z,5.40
2023-03-19T20:53:28.857Z,3.37
2023-03-19T20:55:56.359Z,3.73
2023-03-19T20:58:33.620Z,5.33
2023-03-19T21:01:01.063Z,3.33
2023-03-19T21:03:30.826Z,6.97
2023-03-19T21:06:24.462Z,4.83
2023-03-19T21:08:54.569Z,3.40
2023-03-19T21:11:23.613Z,4.80
2023-03-19T21:13:52.733Z,5.07
2023-03-19T21:16:20.976Z,2.43
2023-03-19T21:18:48.657Z,4.17
2023-03-19T21:21:17.324Z,3.77
2023-03-19T21:23:55.553Z,5.90
2023-03-19T21:26:23.617Z,3.67
2023-03-19T21:29:00.272Z,4.10
2023-03-19T21:31:27.454Z,3.53
2023-03-19T21:33:56.562Z,3.67
2023-03-19T21:36:25.667Z,4.67
2023-03-19T21:38:52.621Z,4.33
2023-03-19T21:41:24.852Z,9.43
2023-03-19T21:44:12.627Z,5.80
2023-03-19T21:46:39.796Z,5.43
2023-03-19T21:49:11.292Z,3.93
2023-03-19T21:51:38.187Z,1.83
2023-03-19T21:54:05.649Z,9.63
2023-03-19T21:56:38.960Z,4.27
2023-03-19T21:59:31.857Z,7.93
2023-03-19T22:01:58.799Z,8.33
2023-03-19T22:04:25.619Z,3.20
2023-03-19T22:06:53.091Z,5.10
2023-03-19T22:09:19.929Z,2.97
2023-03-19T22:11:46.881Z,3.27
2023-03-19T22:14:19.968Z,2.13
2023-03-19T22:16:47.759Z,5.73
2023-03-19T22:19:16.305Z,2.13
2023-03-19T22:21:43.215Z,3.83
2023-03-19T22:24:10.285Z,5.50
2023-03-19T22:26:46.855Z,3.57
2023-03-19T22:29:20.833Z,6.87
2023-03-19T22:31:52.315Z,3.07
2023-03-19T22:34:22.586Z,4.70
2023-03-19T22:36:49.729Z,5.63
2023-03-19T22:39:16.668Z,6.10
2023-03-19T22:41:46.587Z,3.67
2023-03-19T22:44:27.802Z,3.13
2023-03-19T22:46:56.563Z,3.30
2023-03-19T22:49:24.742Z,2.10
2023-03-19T22:51:51.888Z,4.23
2023-03-19T22:54:18.742Z,5.73
2023-03-19T22:56:45.928Z,4.63
2023-03-19T22:59:12.755Z,9.93
2023-03-19T23:01:46.380Z,3.93
2023-03-19T23:04:19.225Z,1.70
2023-03-19T23:06:46.366Z,9.03
2023-03-19T23:09:18.785Z,6.27
2023-03-19T23:11:48.257Z,4.17
2023-03-19T23:14:28.356Z,4.57
2023-03-19T23:19:28.291Z,5.30
2023-03-19T23:21:56.100Z,4.80
2023-03-19T23:24:24.265Z,7.17
2023-03-19T23:26:54.162Z,6.80
2023-03-19T23:29:30.139Z,3.60
2023-03-19T23:31:58.680Z,3.23
2023-03-19T23:34:26.784Z,8.60
2023-03-19T23:36:53.610Z,4.47
2023-03-19T23:39:21.183Z,6.57
2023-03-19T23:41:53.583Z,3.10
2023-03-19T23:44:20.726Z,3.03
2023-03-19T23:46:50.437Z,9.93
2023-03-19T23:49:36.790Z,2.03
2023-03-19T23:52:05.257Z,4.37
2023-03-19T23:54:35.274Z,3.77
2023-03-19T23:57:06.739Z,2.07
2023-03-19T23:59:37.124Z,7.50
